sensor_id;sensor_type;location;lat;lon;timestamp;temperature;humidity
65058;HTU21D;51644;51.068;5.860;2023-11-21T00:00:22;9.54;92.63
65058;HTU21D;51644;51.068;5.860;2023-11-21T00:01:24;9.55;92.56
65058;HTU21D;51644;51.068;5.860;2023-11-21T00:02:25;9.57;92.50
65058;HTU21D;51644;51.068;5.860;2023-11-21T00:03:25;9.60;92.36
65058;HTU21D;51644;51.068;5.860;2023-11-21T00:04:29;9.60;92.32
65058;HTU21D;51644;51.068;5.860;2023-11-21T00:05:30;9.62;92.27
65058;HTU21D;51644;51.068;5.860;2023-11-21T00:06:29;9.63;92.27
65058;HTU21D;51644;51.068;5.860;2023-11-21T00:07:28;9.64;92.18
65058;HTU21D;51644;51.068;5.860;2023-11-21T00:08:28;9.64;92.14
65058;HTU21D;51644;51.068;5.860;2023-11-21T00:09:26;9.64;92.11
65058;HTU21D;51644;51.068;5.860;2023-11-21T00:10:26;9.62;92.14
65058;HTU21D;51644;51.068;5.860;2023-11-21T00:11:25;9.60;92.21
65058;HTU21D;51644;51.068;5.860;2023-11-21T00:12:26;9.62;92.27
65058;HTU21D;51644;51.068;5.860;2023-11-21T00:13:26;9.62;92.27
65058;HTU21D;51644;51.068;5.860;2023-11-21T00:14:27;9.62;92.28
65058;HTU21D;51644;51.068;5.860;2023-11-21T00:15:26;9.63;92.31
65058;HTU21D;51644;51.068;5.860;2023-11-21T00:16:24;9.64;92.34
65058;HTU21D;51644;51.068;5.860;2023-11-21T00:17:23;9.65;92.33
65058;HTU21D;51644;51.068;5.860;2023-11-21T00:18:33;9.65;92.30
65058;HTU21D;51644;51.068;5.860;2023-11-21T00:19:32;9.65;92.32
65058;HTU21D;51644;51.068;5.860;2023-11-21T00:20:31;9.66;92.35
65058;HTU21D;51644;51.068;5.860;2023-11-21T00:21:30;9.66;92.40
65058;HTU21D;51644;51.068;5.860;2023-11-21T00:22:35;9.66;92.42
65058;HTU21D;51644;51.068;5.860;2023-11-21T00:23:34;9.66;92.45
65058;HTU21D;51644;51.068;5.860;2023-11-21T00:24:32;9.67;92.43
65058;HTU21D;51644;51.068;5.860;2023-11-21T00:25:31;9.68;92.44
65058;HTU21D;51644;51.068;5.860;2023-11-21T00:26:30;9.68;92.39
65058;HTU21D;51644;51.068;5.860;2023-11-21T00:27:35;9.71;92.35
65058;HTU21D;51644;51.068;5.860;2023-11-21T00:28:35;9.72;92.33
65058;HTU21D;51644;51.068;5.860;2023-11-21T00:29:33;9.72;92.30
65058;HTU21D;51644;51.068;5.860;2023-11-21T00:30:32;9.74;92.27
65058;HTU21D;51644;51.068;5.860;2023-11-21T00:31:31;9.76;92.21
65058;HTU21D;51644;51.068;5.860;2023-11-21T00:32:30;9.76;92.15
65058;HTU21D;51644;51.068;5.860;2023-11-21T00:33:28;9.77;92.09
65058;HTU21D;51644;51.068;5.860;2023-11-21T00:34:33;9.77;92.04
65058;HTU21D;51644;51.068;5.860;2023-11-21T00:35:33;9.77;92.03
65058;HTU21D;51644;51.068;5.860;2023-11-21T00:36:31;9.78;92.05
65058;HTU21D;51644;51.068;5.860;2023-11-21T00:37:30;9.79;92.06
65058;HTU21D;51644;51.068;5.860;2023-11-21T00:38:30;9.80;92.04
65058;HTU21D;51644;51.068;5.860;2023-11-21T00:39:30;9.81;91.98
65058;HTU21D;51644;51.068;5.860;2023-11-21T00:40:31;9.82;91.95
65058;HTU21D;51644;51.068;5.860;2023-11-21T00:41:30;9.81;91.91
65058;HTU21D;51644;51.068;5.860;2023-11-21T00:42:30;9.82;91.89
65058;HTU21D;51644;51.068;5.860;2023-11-21T00:43:29;9.81;91.87
65058;HTU21D;51644;51.068;5.860;2023-11-21T00:44:28;9.80;91.92
65058;HTU21D;51644;51.068;5.860;2023-11-21T00:45:26;9.81;91.90
65058;HTU21D;51644;51.068;5.860;2023-11-21T00:46:27;9.81;91.92
65058;HTU21D;51644;51.068;5.860;2023-11-21T00:47:27;9.82;91.92
65058;HTU21D;51644;51.068;5.860;2023-11-21T00:48:26;9.82;91.95
65058;HTU21D;51644;51.068;5.860;2023-11-21T00:49:25;9.82;91.94
65058;HTU21D;51644;51.068;5.860;2023-11-21T00:50:23;9.82;91.93
65058;HTU21D;51644;51.068;5.860;2023-11-21T00:51:22;9.82;91.95
65058;HTU21D;51644;51.068;5.860;2023-11-21T00:52:21;9.83;91.96
65058;HTU21D;51644;51.068;5.860;2023-11-21T00:53:20;9.84;91.97
65058;HTU21D;51644;51.068;5.860;2023-11-21T00:54:21;9.84;91.98
65058;HTU21D;51644;51.068;5.860;2023-11-21T00:55:19;9.85;91.99
65058;HTU21D;51644;51.068;5.860;2023-11-21T00:56:23;9.85;91.95
65058;HTU21D;51644;51.068;5.860;2023-11-21T00:57:22;9.86;91.95
65058;HTU21D;51644;51.068;5.860;2023-11-21T00:58:21;9.89;91.98
65058;HTU21D;51644;51.068;5.860;2023-11-21T00:59:23;9.90;91.97
65058;HTU21D;51644;51.068;5.860;2023-11-21T01:00:21;9.90;91.92
65058;HTU21D;51644;51.068;5.860;2023-11-21T01:01:22;9.92;91.92
65058;HTU21D;51644;51.068;5.860;2023-11-21T01:02:27;9.92;91.91
65058;HTU21D;51644;51.068;5.860;2023-11-21T01:03:25;9.93;91.94
65058;HTU21D;51644;51.068;5.860;2023-11-21T01:04:27;9.93;91.90
65058;HTU21D;51644;51.068;5.860;2023-11-21T01:05:28;9.93;91.85
65058;HTU21D;51644;51.068;5.860;2023-11-21T01:06:28;9.92;91.89
65058;HTU21D;51644;51.068;5.860;2023-11-21T01:07:26;9.92;91.92
65058;HTU21D;51644;51.068;5.860;2023-11-21T01:08:25;9.91;91.94
65058;HTU21D;51644;51.068;5.860;2023-11-21T01:09:24;9.91;91.96
65058;HTU21D;51644;51.068;5.860;2023-11-21T01:10:23;9.88;92.01
65058;HTU21D;51644;51.068;5.860;2023-11-21T01:11:23;9.86;92.00
65058;HTU21D;51644;51.068;5.860;2023-11-21T01:12:24;9.84;92.09
65058;HTU21D;51644;51.068;5.860;2023-11-21T01:13:28;9.84;92.09
65058;HTU21D;51644;51.068;5.860;2023-11-21T01:14:27;9.84;92.09
65058;HTU21D;51644;51.068;5.860;2023-11-21T01:15:26;9.82;92.17
65058;HTU21D;51644;51.068;5.860;2023-11-21T01:16:25;9.83;92.20
65058;HTU21D;51644;51.068;5.860;2023-11-21T01:17:24;9.83;92.19
65058;HTU21D;51644;51.068;5.860;2023-11-21T01:18:24;9.83;92.18
65058;HTU21D;51644;51.068;5.860;2023-11-21T01:19:29;9.84;92.16
65058;HTU21D;51644;51.068;5.860;2023-11-21T01:20:29;9.82;92.14
65058;HTU21D;51644;51.068;5.860;2023-11-21T01:21:28;9.80;92.19
65058;HTU21D;51644;51.068;5.860;2023-11-21T01:22:27;9.77;92.24
65058;HTU21D;51644;51.068;5.860;2023-11-21T01:23:27;9.76;92.30
65058;HTU21D;51644;51.068;5.860;2023-11-21T01:24:28;9.75;92.40
65058;HTU21D;51644;51.068;5.860;2023-11-21T01:25:26;9.75;92.49
65058;HTU21D;51644;51.068;5.860;2023-11-21T01:26:31;9.72;92.53
65058;HTU21D;51644;51.068;5.860;2023-11-21T01:27:32;9.72;92.60
65058;HTU21D;51644;51.068;5.860;2023-11-21T01:28:32;9.75;92.66
65058;HTU21D;51644;51.068;5.860;2023-11-21T01:29:30;9.75;92.69
65058;HTU21D;51644;51.068;5.860;2023-11-21T01:30:29;9.78;92.63
65058;HTU21D;51644;51.068;5.860;2023-11-21T01:31:32;9.80;92.55
65058;HTU21D;51644;51.068;5.860;2023-11-21T01:32:31;9.79;92.43
65058;HTU21D;51644;51.068;5.860;2023-11-21T01:33:32;9.80;92.40
65058;HTU21D;51644;51.068;5.860;2023-11-21T01:34:34;9.79;92.36
65058;HTU21D;51644;51.068;5.860;2023-11-21T01:35:32;9.79;92.40
65058;HTU21D;51644;51.068;5.860;2023-11-21T01:36:32;9.78;92.39
65058;HTU21D;51644;51.068;5.860;2023-11-21T01:37:32;9.79;92.41
65058;HTU21D;51644;51.068;5.860;2023-11-21T01:38:44;9.79;92.43
65058;HTU21D;51644;51.068;5.860;2023-11-21T01:39:44;9.80;92.46
65058;HTU21D;51644;51.068;5.860;2023-11-21T01:40:43;9.81;92.43
65058;HTU21D;51644;51.068;5.860;2023-11-21T01:41:41;9.81;92.42
65058;HTU21D;51644;51.068;5.860;2023-11-21T01:42:43;9.81;92.43
65058;HTU21D;51644;51.068;5.860;2023-11-21T01:43:42;9.82;92.42
65058;HTU21D;51644;51.068;5.860;2023-11-21T01:44:40;9.82;92.40
65058;HTU21D;51644;51.068;5.860;2023-11-21T01:45:39;9.82;92.41
65058;HTU21D;51644;51.068;5.860;2023-11-21T01:46:38;9.81;92.40
65058;HTU21D;51644;51.068;5.860;2023-11-21T01:47:38;9.80;92.44
65058;HTU21D;51644;51.068;5.860;2023-11-21T01:48:37;9.79;92.49
65058;HTU21D;51644;51.068;5.860;2023-11-21T01:49:37;9.79;92.49
65058;HTU21D;51644;51.068;5.860;2023-11-21T01:50:36;9.78;92.53
65058;HTU21D;51644;51.068;5.860;2023-11-21T01:51:36;9.75;92.60
65058;HTU21D;51644;51.068;5.860;2023-11-21T01:52:36;9.76;92.62
65058;HTU21D;51644;51.068;5.860;2023-11-21T01:53:39;9.74;92.68
65058;HTU21D;51644;51.068;5.860;2023-11-21T01:54:39;9.74;92.78
65058;HTU21D;51644;51.068;5.860;2023-11-21T01:55:40;9.72;92.83
65058;HTU21D;51644;51.068;5.860;2023-11-21T01:56:40;9.69;92.89
65058;HTU21D;51644;51.068;5.860;2023-11-21T01:57:39;9.69;92.95
65058;HTU21D;51644;51.068;5.860;2023-11-21T01:58:39;9.69;92.95
65058;HTU21D;51644;51.068;5.860;2023-11-21T01:59:38;9.69;92.98
65058;HTU21D;51644;51.068;5.860;2023-11-21T02:00:40;9.71;93.06
65058;HTU21D;51644;51.068;5.860;2023-11-21T02:01:39;9.72;93.06
65058;HTU21D;51644;51.068;5.860;2023-11-21T02:02:39;9.75;93.04
65058;HTU21D;51644;51.068;5.860;2023-11-21T02:03:38;9.78;93.00
65058;HTU21D;51644;51.068;5.860;2023-11-21T02:04:37;9.80;92.93
65058;HTU21D;51644;51.068;5.860;2023-11-21T02:05:36;9.80;92.85
65058;HTU21D;51644;51.068;5.860;2023-11-21T02:06:35;9.82;92.84
65058;HTU21D;51644;51.068;5.860;2023-11-21T02:07:34;9.82;92.79
65058;HTU21D;51644;51.068;5.860;2023-11-21T02:08:33;9.85;92.77
65058;HTU21D;51644;51.068;5.860;2023-11-21T02:09:32;9.85;92.76
65058;HTU21D;51644;51.068;5.860;2023-11-21T02:10:32;9.86;92.70
65058;HTU21D;51644;51.068;5.860;2023-11-21T02:11:31;9.88;92.62
65058;HTU21D;51644;51.068;5.860;2023-11-21T02:12:34;9.85;92.61
65058;HTU21D;51644;51.068;5.860;2023-11-21T02:13:33;9.85;92.63
65058;HTU21D;51644;51.068;5.860;2023-11-21T02:14:32;9.85;92.61
65058;HTU21D;51644;51.068;5.860;2023-11-21T02:15:31;9.84;92.66
65058;HTU21D;51644;51.068;5.860;2023-11-21T02:16:30;9.84;92.67
65058;HTU21D;51644;51.068;5.860;2023-11-21T02:17:29;9.83;92.68
65058;HTU21D;51644;51.068;5.860;2023-11-21T02:18:29;9.82;92.71
65058;HTU21D;51644;51.068;5.860;2023-11-21T02:19:28;9.84;92.75
65058;HTU21D;51644;51.068;5.860;2023-11-21T02:20:28;9.84;92.79
65058;HTU21D;51644;51.068;5.860;2023-11-21T02:21:29;9.86;92.79
65058;HTU21D;51644;51.068;5.860;2023-11-21T02:22:31;9.88;92.72
65058;HTU21D;51644;51.068;5.860;2023-11-21T02:23:31;9.89;92.65
65058;HTU21D;51644;51.068;5.860;2023-11-21T02:24:29;9.90;92.62
65058;HTU21D;51644;51.068;5.860;2023-11-21T02:25:30;9.90;92.56
65058;HTU21D;51644;51.068;5.860;2023-11-21T02:26:30;9.89;92.48
65058;HTU21D;51644;51.068;5.860;2023-11-21T02:27:29;9.88;92.44
65058;HTU21D;51644;51.068;5.860;2023-11-21T02:28:27;9.86;92.45
65058;HTU21D;51644;51.068;5.860;2023-11-21T02:29:27;9.83;92.47
65058;HTU21D;51644;51.068;5.860;2023-11-21T02:30:27;9.82;92.50
65058;HTU21D;51644;51.068;5.860;2023-11-21T02:31:30;9.81;92.53
65058;HTU21D;51644;51.068;5.860;2023-11-21T02:32:33;9.81;92.63
65058;HTU21D;51644;51.068;5.860;2023-11-21T02:33:32;9.80;92.63
65058;HTU21D;51644;51.068;5.860;2023-11-21T02:34:32;9.81;92.66
65058;HTU21D;51644;51.068;5.860;2023-11-21T02:35:31;9.83;92.72
65058;HTU21D;51644;51.068;5.860;2023-11-21T02:36:30;9.83;92.70
65058;HTU21D;51644;51.068;5.860;2023-11-21T02:37:29;9.84;92.69
65058;HTU21D;51644;51.068;5.860;2023-11-21T02:38:28;9.83;92.69
65058;HTU21D;51644;51.068;5.860;2023-11-21T02:39:27;9.83;92.68
65058;HTU21D;51644;51.068;5.860;2023-11-21T02:40:26;9.83;92.70
65058;HTU21D;51644;51.068;5.860;2023-11-21T02:41:25;9.84;92.69
65058;HTU21D;51644;51.068;5.860;2023-11-21T02:42:25;9.84;92.68
65058;HTU21D;51644;51.068;5.860;2023-11-21T02:43:23;9.83;92.72
65058;HTU21D;51644;51.068;5.860;2023-11-21T02:44:22;9.84;92.75
65058;HTU21D;51644;51.068;5.860;2023-11-21T02:45:21;9.84;92.72
65058;HTU21D;51644;51.068;5.860;2023-11-21T02:46:20;9.85;92.70
65058;HTU21D;51644;51.068;5.860;2023-11-21T02:47:18;9.84;92.68
65058;HTU21D;51644;51.068;5.860;2023-11-21T02:48:17;9.84;92.66
65058;HTU21D;51644;51.068;5.860;2023-11-21T02:49:15;9.84;92.65
65058;HTU21D;51644;51.068;5.860;2023-11-21T02:50:15;9.82;92.67
65058;HTU21D;51644;51.068;5.860;2023-11-21T02:51:14;9.82;92.68
65058;HTU21D;51644;51.068;5.860;2023-11-21T02:52:14;9.82;92.68
65058;HTU21D;51644;51.068;5.860;2023-11-21T02:53:12;9.83;92.72
65058;HTU21D;51644;51.068;5.860;2023-11-21T02:54:11;9.82;92.73
65058;HTU21D;51644;51.068;5.860;2023-11-21T02:55:10;9.84;92.69
65058;HTU21D;51644;51.068;5.860;2023-11-21T02:56:09;9.81;92.70
65058;HTU21D;51644;51.068;5.860;2023-11-21T02:57:07;9.80;92.70
65058;HTU21D;51644;51.068;5.860;2023-11-21T02:58:07;9.80;92.71
65058;HTU21D;51644;51.068;5.860;2023-11-21T02:59:05;9.79;92.77
65058;HTU21D;51644;51.068;5.860;2023-11-21T03:00:05;9.80;92.79
65058;HTU21D;51644;51.068;5.860;2023-11-21T03:01:09;9.79;92.78
65058;HTU21D;51644;51.068;5.860;2023-11-21T03:02:09;9.79;92.82
65058;HTU21D;51644;51.068;5.860;2023-11-21T03:03:07;9.80;92.85
65058;HTU21D;51644;51.068;5.860;2023-11-21T03:04:06;9.82;92.86
65058;HTU21D;51644;51.068;5.860;2023-11-21T03:05:06;9.84;92.84
65058;HTU21D;51644;51.068;5.860;2023-11-21T03:06:06;9.86;92.79
65058;HTU21D;51644;51.068;5.860;2023-11-21T03:07:07;9.90;92.70
65058;HTU21D;51644;51.068;5.860;2023-11-21T03:08:06;9.91;92.63
65058;HTU21D;51644;51.068;5.860;2023-11-21T03:09:06;9.93;92.54
65058;HTU21D;51644;51.068;5.860;2023-11-21T03:10:08;9.92;92.48
65058;HTU21D;51644;51.068;5.860;2023-11-21T03:11:09;9.95;92.46
65058;HTU21D;51644;51.068;5.860;2023-11-21T03:12:10;9.96;92.39
65058;HTU21D;51644;51.068;5.860;2023-11-21T03:13:12;9.97;92.37
65058;HTU21D;51644;51.068;5.860;2023-11-21T03:14:11;10.00;92.29
65058;HTU21D;51644;51.068;5.860;2023-11-21T03:15:11;10.01;92.27
65058;HTU21D;51644;51.068;5.860;2023-11-21T03:16:11;10.04;92.22
65058;HTU21D;51644;51.068;5.860;2023-11-21T03:17:10;10.03;92.12
65058;HTU21D;51644;51.068;5.860;2023-11-21T03:18:10;10.04;92.11
65058;HTU21D;51644;51.068;5.860;2023-11-21T03:19:08;10.05;92.07
65058;HTU21D;51644;51.068;5.860;2023-11-21T03:20:07;10.05;92.05
65058;HTU21D;51644;51.068;5.860;2023-11-21T03:21:09;10.06;92.01
65058;HTU21D;51644;51.068;5.860;2023-11-21T03:22:07;10.05;92.02
65058;HTU21D;51644;51.068;5.860;2023-11-21T03:23:07;10.04;91.98
65058;HTU21D;51644;51.068;5.860;2023-11-21T03:24:06;10.03;92.01
65058;HTU21D;51644;51.068;5.860;2023-11-21T03:25:06;10.01;92.02
65058;HTU21D;51644;51.068;5.860;2023-11-21T03:26:12;9.99;92.08
65058;HTU21D;51644;51.068;5.860;2023-11-21T03:27:11;9.98;92.12
65058;HTU21D;51644;51.068;5.860;2023-11-21T03:28:10;9.97;92.19
65058;HTU21D;51644;51.068;5.860;2023-11-21T03:29:09;9.96;92.23
65058;HTU21D;51644;51.068;5.860;2023-11-21T03:30:09;9.94;92.28
65058;HTU21D;51644;51.068;5.860;2023-11-21T03:31:08;9.95;92.32
65058;HTU21D;51644;51.068;5.860;2023-11-21T03:32:07;9.94;92.36
65058;HTU21D;51644;51.068;5.860;2023-11-21T03:33:06;9.96;92.40
65058;HTU21D;51644;51.068;5.860;2023-11-21T03:34:04;9.97;92.37
65058;HTU21D;51644;51.068;5.860;2023-11-21T03:35:03;9.98;92.36
65058;HTU21D;51644;51.068;5.860;2023-11-21T03:36:02;9.97;92.30
65058;HTU21D;51644;51.068;5.860;2023-11-21T03:37:02;9.97;92.33
65058;HTU21D;51644;51.068;5.860;2023-11-21T03:38:01;9.97;92.34
65058;HTU21D;51644;51.068;5.860;2023-11-21T03:39:01;9.96;92.36
65058;HTU21D;51644;51.068;5.860;2023-11-21T03:40:08;9.94;92.39
65058;HTU21D;51644;51.068;5.860;2023-11-21T03:41:07;9.95;92.40
65058;HTU21D;51644;51.068;5.860;2023-11-21T03:42:08;9.95;92.41
65058;HTU21D;51644;51.068;5.860;2023-11-21T03:43:07;9.94;92.43
65058;HTU21D;51644;51.068;5.860;2023-11-21T03:44:05;9.94;92.46
65058;HTU21D;51644;51.068;5.860;2023-11-21T03:45:05;9.95;92.50
65058;HTU21D;51644;51.068;5.860;2023-11-21T03:46:04;9.98;92.54
65058;HTU21D;51644;51.068;5.860;2023-11-21T03:47:03;9.99;92.46
65058;HTU21D;51644;51.068;5.860;2023-11-21T03:48:02;10.00;92.39
65058;HTU21D;51644;51.068;5.860;2023-11-21T03:49:01;10.01;92.38
65058;HTU21D;51644;51.068;5.860;2023-11-21T03:49:59;10.01;92.38
65058;HTU21D;51644;51.068;5.860;2023-11-21T03:50:58;10.03;92.37
65058;HTU21D;51644;51.068;5.860;2023-11-21T03:51:57;10.03;92.37
65058;HTU21D;51644;51.068;5.860;2023-11-21T03:52:55;10.04;92.31
65058;HTU21D;51644;51.068;5.860;2023-11-21T03:53:54;10.05;92.31
65058;HTU21D;51644;51.068;5.860;2023-11-21T03:54:53;10.07;92.30
65058;HTU21D;51644;51.068;5.860;2023-11-21T03:55:51;10.06;92.25
65058;HTU21D;51644;51.068;5.860;2023-11-21T03:56:50;10.07;92.21
65058;HTU21D;51644;51.068;5.860;2023-11-21T03:57:51;10.07;92.21
65058;HTU21D;51644;51.068;5.860;2023-11-21T03:58:51;10.08;92.19
65058;HTU21D;51644;51.068;5.860;2023-11-21T03:59:50;10.10;92.14
65058;HTU21D;51644;51.068;5.860;2023-11-21T04:00:49;10.11;92.14
65058;HTU21D;51644;51.068;5.860;2023-11-21T04:01:47;10.11;92.08
65058;HTU21D;51644;51.068;5.860;2023-11-21T04:02:46;10.11;92.02
65058;HTU21D;51644;51.068;5.860;2023-11-21T04:03:45;10.11;92.03
65058;HTU21D;51644;51.068;5.860;2023-11-21T04:04:44;10.12;92.04
65058;HTU21D;51644;51.068;5.860;2023-11-21T04:05:43;10.13;92.01
65058;HTU21D;51644;51.068;5.860;2023-11-21T04:06:41;10.12;92.00
65058;HTU21D;51644;51.068;5.860;2023-11-21T04:07:40;10.12;91.98
65058;HTU21D;51644;51.068;5.860;2023-11-21T04:08:39;10.12;91.98
65058;HTU21D;51644;51.068;5.860;2023-11-21T04:09:37;10.10;92.01
65058;HTU21D;51644;51.068;5.860;2023-11-21T04:10:36;10.10;92.05
65058;HTU21D;51644;51.068;5.860;2023-11-21T04:11:34;10.09;92.05
65058;HTU21D;51644;51.068;5.860;2023-11-21T04:12:33;10.07;92.08
65058;HTU21D;51644;51.068;5.860;2023-11-21T04:13:32;10.06;92.13
65058;HTU21D;51644;51.068;5.860;2023-11-21T04:14:30;10.04;92.08
65058;HTU21D;51644;51.068;5.860;2023-11-21T04:15:31;10.01;92.27
65058;HTU21D;51644;51.068;5.860;2023-11-21T04:16:33;10.00;92.30
65058;HTU21D;51644;51.068;5.860;2023-11-21T04:17:32;9.99;92.35
65058;HTU21D;51644;51.068;5.860;2023-11-21T04:18:30;9.98;92.37
65058;HTU21D;51644;51.068;5.860;2023-11-21T04:19:29;9.96;92.50
65058;HTU21D;51644;51.068;5.860;2023-11-21T04:20:28;9.97;92.47
65058;HTU21D;51644;51.068;5.860;2023-11-21T04:21:26;9.96;92.51
65058;HTU21D;51644;51.068;5.860;2023-11-21T04:22:26;9.97;92.59
65058;HTU21D;51644;51.068;5.860;2023-11-21T04:23:24;9.96;92.63
65058;HTU21D;51644;51.068;5.860;2023-11-21T04:24:26;9.96;92.65
65058;HTU21D;51644;51.068;5.860;2023-11-21T04:25:25;9.98;92.62
65058;HTU21D;51644;51.068;5.860;2023-11-21T04:26:24;9.98;92.65
65058;HTU21D;51644;51.068;5.860;2023-11-21T04:27:22;9.98;92.66
65058;HTU21D;51644;51.068;5.860;2023-11-21T04:28:21;10.00;92.65
65058;HTU21D;51644;51.068;5.860;2023-11-21T04:29:20;9.97;92.69
65058;HTU21D;51644;51.068;5.860;2023-11-21T04:30:18;9.98;92.65
65058;HTU21D;51644;51.068;5.860;2023-11-21T04:31:17;9.99;92.69
65058;HTU21D;51644;51.068;5.860;2023-11-21T04:32:17;9.97;92.68
65058;HTU21D;51644;51.068;5.860;2023-11-21T04:33:16;9.98;92.69
65058;HTU21D;51644;51.068;5.860;2023-11-21T04:34:15;9.98;92.66
65058;HTU21D;51644;51.068;5.860;2023-11-21T04:35:17;9.97;92.71
65058;HTU21D;51644;51.068;5.860;2023-11-21T04:36:22;9.97;92.79
65058;HTU21D;51644;51.068;5.860;2023-11-21T04:37:21;9.97;92.82
65058;HTU21D;51644;51.068;5.860;2023-11-21T04:38:22;9.97;92.82
65058;HTU21D;51644;51.068;5.860;2023-11-21T04:39:21;9.98;92.82
65058;HTU21D;51644;51.068;5.860;2023-11-21T04:40:19;9.97;92.90
65058;HTU21D;51644;51.068;5.860;2023-11-21T04:41:19;9.96;92.88
65058;HTU21D;51644;51.068;5.860;2023-11-21T04:42:18;9.97;92.88
65058;HTU21D;51644;51.068;5.860;2023-11-21T04:43:16;9.96;92.88
65058;HTU21D;51644;51.068;5.860;2023-11-21T04:44:15;9.96;92.87
65058;HTU21D;51644;51.068;5.860;2023-11-21T04:45:15;9.96;92.96
65058;HTU21D;51644;51.068;5.860;2023-11-21T04:46:16;9.97;92.94
65058;HTU21D;51644;51.068;5.860;2023-11-21T04:47:17;9.99;92.98
65058;HTU21D;51644;51.068;5.860;2023-11-21T04:48:20;9.95;92.96
65058;HTU21D;51644;51.068;5.860;2023-11-21T04:49:23;9.97;92.96
65058;HTU21D;51644;51.068;5.860;2023-11-21T04:50:25;9.97;92.95
65058;HTU21D;51644;51.068;5.860;2023-11-21T04:51:29;9.99;92.95
65058;HTU21D;51644;51.068;5.860;2023-11-21T04:52:29;10.00;92.93
65058;HTU21D;51644;51.068;5.860;2023-11-21T04:53:28;10.01;92.88
65058;HTU21D;51644;51.068;5.860;2023-11-21T04:54:26;10.03;92.85
65058;HTU21D;51644;51.068;5.860;2023-11-21T04:55:25;10.03;92.85
65058;HTU21D;51644;51.068;5.860;2023-11-21T04:56:26;10.04;92.91
65058;HTU21D;51644;51.068;5.860;2023-11-21T04:57:25;10.06;92.83
65058;HTU21D;51644;51.068;5.860;2023-11-21T04:58:23;10.06;92.82
65058;HTU21D;51644;51.068;5.860;2023-11-21T04:59:22;10.07;92.79
65058;HTU21D;51644;51.068;5.860;2023-11-21T05:00:25;10.06;92.82
65058;HTU21D;51644;51.068;5.860;2023-11-21T05:01:24;10.07;92.85
65058;HTU21D;51644;51.068;5.860;2023-11-21T05:02:22;10.09;92.88
65058;HTU21D;51644;51.068;5.860;2023-11-21T05:03:21;10.09;92.82
65058;HTU21D;51644;51.068;5.860;2023-11-21T05:04:22;10.12;92.79
65058;HTU21D;51644;51.068;5.860;2023-11-21T05:05:21;10.13;92.73
65058;HTU21D;51644;51.068;5.860;2023-11-21T05:06:20;10.14;92.68
65058;HTU21D;51644;51.068;5.860;2023-11-21T05:07:18;10.15;92.66
65058;HTU21D;51644;51.068;5.860;2023-11-21T05:08:17;10.18;92.59
65058;HTU21D;51644;51.068;5.860;2023-11-21T05:09:17;10.18;92.55
65058;HTU21D;51644;51.068;5.860;2023-11-21T05:10:16;10.16;92.61
65058;HTU21D;51644;51.068;5.860;2023-11-21T05:11:26;10.18;92.43
65058;HTU21D;51644;51.068;5.860;2023-11-21T05:12:25;10.16;92.40
65058;HTU21D;51644;51.068;5.860;2023-11-21T05:13:23;10.18;92.39
65058;HTU21D;51644;51.068;5.860;2023-11-21T05:14:25;10.16;92.30
65058;HTU21D;51644;51.068;5.860;2023-11-21T05:15:24;10.14;92.28
65058;HTU21D;51644;51.068;5.860;2023-11-21T05:16:26;10.15;92.32
65058;HTU21D;51644;51.068;5.860;2023-11-21T05:17:26;10.14;92.32
65058;HTU21D;51644;51.068;5.860;2023-11-21T05:18:24;10.11;92.34
65058;HTU21D;51644;51.068;5.860;2023-11-21T05:19:25;10.10;92.40
65058;HTU21D;51644;51.068;5.860;2023-11-21T05:20:25;10.11;92.40
65058;HTU21D;51644;51.068;5.860;2023-11-21T05:21:24;10.12;92.45
65058;HTU21D;51644;51.068;5.860;2023-11-21T05:22:23;10.10;92.46
65058;HTU21D;51644;51.068;5.860;2023-11-21T05:23:22;10.09;92.46
65058;HTU21D;51644;51.068;5.860;2023-11-21T05:24:23;10.10;92.47
65058;HTU21D;51644;51.068;5.860;2023-11-21T05:25:22;10.10;92.51
65058;HTU21D;51644;51.068;5.860;2023-11-21T05:26:21;10.10;92.52
65058;HTU21D;51644;51.068;5.860;2023-11-21T05:27:20;10.10;92.52
65058;HTU21D;51644;51.068;5.860;2023-11-21T05:28:18;10.12;92.48
65058;HTU21D;51644;51.068;5.860;2023-11-21T05:29:17;10.12;92.42
65058;HTU21D;51644;51.068;5.860;2023-11-21T05:30:15;10.10;92.44
65058;HTU21D;51644;51.068;5.860;2023-11-21T05:31:14;10.09;92.55
65058;HTU21D;51644;51.068;5.860;2023-11-21T05:32:12;10.09;92.51
65058;HTU21D;51644;51.068;5.860;2023-11-21T05:33:11;10.09;92.58
65058;HTU21D;51644;51.068;5.860;2023-11-21T05:34:10;10.10;92.53
65058;HTU21D;51644;51.068;5.860;2023-11-21T05:35:08;10.11;92.47
65058;HTU21D;51644;51.068;5.860;2023-11-21T05:36:16;10.09;92.60
65058;HTU21D;51644;51.068;5.860;2023-11-21T05:37:15;10.10;92.49
65058;HTU21D;51644;51.068;5.860;2023-11-21T05:38:14;10.09;92.47
65058;HTU21D;51644;51.068;5.860;2023-11-21T05:39:14;10.09;92.57
65058;HTU21D;51644;51.068;5.860;2023-11-21T05:40:12;10.10;92.62
65058;HTU21D;51644;51.068;5.860;2023-11-21T05:41:11;10.10;92.65
65058;HTU21D;51644;51.068;5.860;2023-11-21T05:42:12;10.10;92.66
65058;HTU21D;51644;51.068;5.860;2023-11-21T05:43:10;10.12;92.68
65058;HTU21D;51644;51.068;5.860;2023-11-21T05:44:11;10.14;92.70
65058;HTU21D;51644;51.068;5.860;2023-11-21T05:45:12;10.15;92.69
65058;HTU21D;51644;51.068;5.860;2023-11-21T05:46:11;10.19;92.64
65058;HTU21D;51644;51.068;5.860;2023-11-21T05:47:11;10.21;92.62
65058;HTU21D;51644;51.068;5.860;2023-11-21T05:48:12;10.23;92.58
65058;HTU21D;51644;51.068;5.860;2023-11-21T05:49:10;10.22;92.49
65058;HTU21D;51644;51.068;5.860;2023-11-21T05:50:10;10.23;92.47
65058;HTU21D;51644;51.068;5.860;2023-11-21T05:51:10;10.22;92.46
65058;HTU21D;51644;51.068;5.860;2023-11-21T05:52:10;10.24;92.46
65058;HTU21D;51644;51.068;5.860;2023-11-21T05:53:09;10.25;92.44
65058;HTU21D;51644;51.068;5.860;2023-11-21T05:54:09;10.27;92.42
65058;HTU21D;51644;51.068;5.860;2023-11-21T05:55:09;10.27;92.40
65058;HTU21D;51644;51.068;5.860;2023-11-21T05:56:07;10.28;92.34
65058;HTU21D;51644;51.068;5.860;2023-11-21T05:57:06;10.28;92.24
65058;HTU21D;51644;51.068;5.860;2023-11-21T05:58:04;10.27;92.23
65058;HTU21D;51644;51.068;5.860;2023-11-21T05:59:03;10.27;92.26
65058;HTU21D;51644;51.068;5.860;2023-11-21T06:00:12;10.26;92.24
65058;HTU21D;51644;51.068;5.860;2023-11-21T06:01:20;10.25;92.20
65058;HTU21D;51644;51.068;5.860;2023-11-21T06:02:18;10.24;92.15
65058;HTU21D;51644;51.068;5.860;2023-11-21T06:03:17;10.23;92.22
65058;HTU21D;51644;51.068;5.860;2023-11-21T06:04:16;10.23;92.32
65058;HTU21D;51644;51.068;5.860;2023-11-21T06:05:15;10.21;92.37
65058;HTU21D;51644;51.068;5.860;2023-11-21T06:06:13;10.22;92.39
65058;HTU21D;51644;51.068;5.860;2023-11-21T06:07:12;10.23;92.40
65058;HTU21D;51644;51.068;5.860;2023-11-21T06:08:11;10.24;92.39
65058;HTU21D;51644;51.068;5.860;2023-11-21T06:09:09;10.25;92.41
65058;HTU21D;51644;51.068;5.860;2023-11-21T06:10:11;10.27;92.42
65058;HTU21D;51644;51.068;5.860;2023-11-21T06:11:13;10.28;92.40
65058;HTU21D;51644;51.068;5.860;2023-11-21T06:12:12;10.30;92.42
65058;HTU21D;51644;51.068;5.860;2023-11-21T06:13:11;10.33;92.37
65058;HTU21D;51644;51.068;5.860;2023-11-21T06:14:09;10.34;92.28
65058;HTU21D;51644;51.068;5.860;2023-11-21T06:15:10;10.36;92.21